Time;durP1;ratioP1;P1;durP2;ratioP2;P2;SDS_P1;SDS_P2;PMS_P1;PMS_P2;Temp;Humidity;BMP_temperature;BMP_pressure;BME280_temperature;BME280_humidity;BME280_pressure;Samples;Min_cycle;Max_cycle;Signal;HPM_P1;HPM_P2
2022/04/07 00:02:22;;;;;;;0.80;0.80;;;;;;;;;;5103578;28;20196;-66
2022/04/07 00:04:49;;;;;;;0.98;0.98;;;;;;;;;;5103806;28;20241;-66
2022/04/07 00:07:16;;;;;;;0.82;0.82;;;;;;;;;;5103865;28;20203;-66
2022/04/07 00:09:42;;;;;;;1.10;1.02;;;;;;;;;;5103806;28;20200;-66
2022/04/07 00:12:08;;;;;;;0.73;0.73;;;;;;;;;;5103667;28;20203;-66
2022/04/07 00:14:35;;;;;;;0.57;0.57;;;;;;;;;;5103531;28;20195;-66
2022/04/07 00:17:01;;;;;;;0.60;0.60;;;;;;;;;;5103216;28;20195;-66
2022/04/07 00:19:27;;;;;;;1.02;1.02;;;;;;;;;;5103507;28;20220;-66
2022/04/07 00:21:56;;;;;;;0.65;0.65;;;;;;;;;;5103500;28;20241;-66
2022/04/07 00:24:22;;;;;;;1.88;1.25;;;;;;;;;;5103292;28;20203;-66
2022/04/07 00:26:49;;;;;;;1.92;1.25;;;;;;;;;;5103095;28;20195;-66
2022/04/07 00:29:15;;;;;;;0.70;0.70;;;;;;;;;;5103193;28;20195;-66
2022/04/07 00:31:42;;;;;;;0.90;0.90;;;;;;;;;;5103372;28;20196;-66
2022/04/07 00:34:08;;;;;;;1.42;0.70;;;;;;;;;;5103437;28;20227;-66
2022/04/07 00:36:34;;;;;;;0.80;0.80;;;;;;;;;;5103103;28;20496;-66
2022/04/07 00:39:02;;;;;;;0.80;0.80;;;;;;;;;;5102474;28;20538;-66
2022/04/07 00:41:28;;;;;;;0.77;0.75;;;;;;;;;;5102972;28;20547;-66
2022/04/07 00:43:54;;;;;;;0.93;0.93;;;;;;;;;;5103032;28;20526;-66
2022/04/07 00:46:21;;;;;;;0.70;0.70;;;;;;;;;;5103051;28;20202;-66
2022/04/07 00:48:47;;;;;;;0.63;0.63;;;;;;;;;;5103041;28;20214;-66
2022/04/07 00:51:13;;;;;;;0.80;0.80;;;;;;;;;;5103059;28;20498;-66
2022/04/07 00:53:40;;;;;;;1.00;1.00;;;;;;;;;;5103021;28;20204;-66
2022/04/07 00:56:08;;;;;;;1.40;0.88;;;;;;;;;;5102659;28;20232;-66
2022/04/07 00:58:35;;;;;;;0.90;0.90;;;;;;;;;;5102428;28;20527;-66
2022/04/07 01:01:02;;;;;;;0.80;0.80;;;;;;;;;;5102680;28;20484;-66
2022/04/07 01:03:28;;;;;;;0.98;0.80;;;;;;;;;;5102909;28;20195;-66
2022/04/07 01:05:55;;;;;;;0.63;0.63;;;;;;;;;;5102713;28;20219;-66
2022/04/07 01:08:21;;;;;;;1.08;1.08;;;;;;;;;;5102476;28;20313;-66
2022/04/07 01:10:48;;;;;;;1.45;1.35;;;;;;;;;;5102707;28;20529;-66
2022/04/07 01:13:16;;;;;;;1.40;1.40;;;;;;;;;;5103081;28;20203;-66
2022/04/07 01:15:42;;;;;;;1.73;1.40;;;;;;;;;;5102797;28;20195;-66
2022/04/07 01:18:08;;;;;;;2.17;2.08;;;;;;;;;;5102346;28;20234;-66
2022/04/07 01:20:35;;;;;;;1.85;1.75;;;;;;;;;;5102620;28;20408;-66
2022/04/07 01:23:02;;;;;;;1.88;1.77;;;;;;;;;;5102460;28;20202;-66
2022/04/07 01:25:30;;;;;;;1.67;1.58;;;;;;;;;;5102307;28;20200;-66
2022/04/07 01:27:56;;;;;;;1.40;1.30;;;;;;;;;;5102426;28;20195;-66
2022/04/07 01:30:23;;;;;;;1.10;1.10;;;;;;;;;;5102539;28;20202;-66
2022/04/07 01:32:51;;;;;;;1.00;1.00;;;;;;;;;;5102379;28;20495;-66
2022/04/07 01:35:18;;;;;;;0.98;0.98;;;;;;;;;;5102437;28;20275;-66
2022/04/07 01:37:45;;;;;;;0.88;0.88;;;;;;;;;;5102024;28;20203;-66
2022/04/07 01:40:12;;;;;;;1.20;1.10;;;;;;;;;;5102208;28;20220;-66
2022/04/07 01:42:40;;;;;;;1.40;0.90;;;;;;;;;;5102519;28;20514;-66
2022/04/07 01:45:07;;;;;;;0.90;0.90;;;;;;;;;;5101561;28;20484;-66
2022/04/07 01:47:35;;;;;;;2.45;1.00;;;;;;;;;;5101953;28;20499;-66
2022/04/07 01:50:03;;;;;;;0.63;0.63;;;;;;;;;;5102426;28;20491;-66
2022/04/07 01:52:30;;;;;;;0.70;0.70;;;;;;;;;;5106078;28;20195;-66
2022/04/07 01:54:56;;;;;;;0.93;0.93;;;;;;;;;;5106386;28;20204;-66
2022/04/07 01:57:23;;;;;;;0.75;0.70;;;;;;;;;;5105919;28;20225;-66
2022/04/07 01:59:51;;;;;;;1.13;0.88;;;;;;;;;;5105928;28;20219;-66
2022/04/07 02:02:17;;;;;;;0.60;0.60;;;;;;;;;;5106093;28;20395;-66
2022/04/07 02:04:58;;;;;;;0.60;0.60;;;;;;;;;;5106275;28;20382;-66
2022/04/07 02:07:28;;;;;;;0.60;0.60;;;;;;;;;;5103184;28;20199;-66
2022/04/07 02:09:55;;;;;;;0.70;0.52;;;;;;;;;;5105951;28;20567;-66
2022/04/07 02:12:21;;;;;;;0.70;0.70;;;;;;;;;;5105835;28;20222;-66
2022/04/07 02:14:48;;;;;;;0.60;0.60;;;;;;;;;;5105777;28;20427;-66
2022/04/07 02:17:17;;;;;;;0.43;0.43;;;;;;;;;;5105720;28;20234;-66
2022/04/07 02:19:43;;;;;;;0.50;0.50;;;;;;;;;;5105562;28;20216;-66
2022/04/07 02:22:10;;;;;;;0.70;0.70;;;;;;;;;;5105922;28;20195;-66
2022/04/07 02:24:37;;;;;;;0.73;0.73;;;;;;;;;;5105708;28;20242;-66
2022/04/07 02:27:04;;;;;;;0.60;0.57;;;;;;;;;;5105337;28;20203;-66
2022/04/07 02:29:30;;;;;;;0.60;0.60;;;;;;;;;;5105891;28;20204;-66
2022/04/07 02:31:56;;;;;;;0.60;0.60;;;;;;;;;;5105660;28;20211;-66
2022/04/07 02:34:24;;;;;;;0.65;0.65;;;;;;;;;;5105635;28;20218;-66
2022/04/07 02:36:50;;;;;;;0.80;0.80;;;;;;;;;;5105593;28;20195;-66
2022/04/07 02:39:16;;;;;;;1.52;0.70;;;;;;;;;;5105347;28;20219;-66
2022/04/07 02:41:43;;;;;;;0.60;0.50;;;;;;;;;;5105342;28;20249;-66
2022/04/07 02:44:09;;;;;;;1.73;0.55;;;;;;;;;;5105468;28;20240;-66
2022/04/07 02:46:35;;;;;;;0.63;0.63;;;;;;;;;;5105206;28;20195;-66
2022/04/07 02:49:01;;;;;;;0.82;0.82;;;;;;;;;;5105278;28;20198;-66
2022/04/07 02:51:31;;;;;;;0.57;0.57;;;;;;;;;;5105284;28;20196;-66
2022/04/07 02:53:58;;;;;;;0.50;0.50;;;;;;;;;;5104995;28;20389;-66
2022/04/07 02:56:24;;;;;;;0.77;0.70;;;;;;;;;;5104755;28;20199;-66
2022/04/07 02:58:51;;;;;;;0.60;0.60;;;;;;;;;;5105135;28;20223;-66
2022/04/07 03:01:18;;;;;;;0.40;0.40;;;;;;;;;;5105176;28;20203;-66
2022/04/07 03:03:44;;;;;;;0.30;0.30;;;;;;;;;;5104052;28;20416;-66
2022/04/07 03:06:10;;;;;;;0.98;0.40;;;;;;;;;;5104806;28;20216;-66
2022/04/07 03:08:38;;;;;;;0.60;0.60;;;;;;;;;;5104769;28;20196;-66
2022/04/07 03:11:05;;;;;;;0.85;0.40;;;;;;;;;;5104795;28;20499;-66
2022/04/07 03:13:32;;;;;;;0.40;0.40;;;;;;;;;;5104825;28;20199;-66
2022/04/07 03:15:59;;;;;;;0.63;0.60;;;;;;;;;;5104451;28;20196;-66
2022/04/07 03:18:25;;;;;;;0.50;0.50;;;;;;;;;;5104632;28;20530;-66
2022/04/07 03:20:51;;;;;;;0.50;0.50;;;;;;;;;;5104659;28;20226;-66
2022/04/07 03:23:18;;;;;;;0.40;0.40;;;;;;;;;;5104447;28;20203;-66
2022/04/07 03:25:46;;;;;;;0.40;0.40;;;;;;;;;;5104357;28;20200;-66
2022/04/07 03:28:12;;;;;;;0.50;0.50;;;;;;;;;;5104264;28;20208;-66
2022/04/07 03:30:39;;;;;;;0.40;0.40;;;;;;;;;;5104435;28;20198;-66
2022/04/07 03:33:06;;;;;;;0.30;0.30;;;;;;;;;;5104675;28;20196;-66
2022/04/07 03:35:32;;;;;;;0.32;0.32;;;;;;;;;;5104294;28;20229;-66
2022/04/07 03:37:58;;;;;;;20.48;13.60;;;;;;;;;;5103897;28;20196;-66
2022/04/07 03:40:25;;;;;;;0.90;0.90;;;;;;;;;;5104307;28;20242;-66
2022/04/07 03:42:53;;;;;;;1.55;1.08;;;;;;;;;;5104235;28;20266;-66
2022/04/07 03:45:19;;;;;;;0.60;0.60;;;;;;;;;;5104224;28;20317;-66
2022/04/07 03:47:45;;;;;;;1.17;0.40;;;;;;;;;;5103813;28;20191;-66
2022/04/07 03:50:12;;;;;;;1.17;0.47;;;;;;;;;;5104038;28;20192;-66
2022/04/07 03:52:38;;;;;;;0.45;0.45;;;;;;;;;;5103923;28;20195;-66
2022/04/07 03:55:05;;;;;;;1.23;0.52;;;;;;;;;;5104091;28;20196;-65
2022/04/07 03:57:31;;;;;;;0.40;0.40;;;;;;;;;;5103602;28;20241;-66
2022/04/07 03:59:59;;;;;;;1.33;0.45;;;;;;;;;;5103770;28;20223;-66
2022/04/07 04:02:25;;;;;;;0.38;0.38;;;;;;;;;;5103841;28;20233;-65
2022/04/07 04:04:52;;;;;;;0.40;0.40;;;;;;;;;;5103702;28;20249;-65
2022/04/07 04:07:18;;;;;;;0.50;0.50;;;;;;;;;;5103379;28;20202;-66
2022/04/07 04:09:45;;;;;;;0.40;0.40;;;;;;;;;;5103793;28;20238;-66
2022/04/07 04:12:11;;;;;;;0.32;0.32;;;;;;;;;;5103663;28;20301;-66
2022/04/07 04:14:38;;;;;;;0.40;0.40;;;;;;;;;;5103516;28;20187;-66
2022/04/07 04:17:05;;;;;;;0.40;0.40;;;;;;;;;;5103232;28;20195;-66
2022/04/07 04:19:33;;;;;;;0.40;0.40;;;;;;;;;;5103242;28;20222;-66
2022/04/07 04:21:59;;;;;;;0.50;0.50;;;;;;;;;;5103696;28;20204;-66
2022/04/07 04:24:25;;;;;;;1.08;0.50;;;;;;;;;;5103443;28;20195;-66
2022/04/07 04:26:51;;;;;;;0.40;0.40;;;;;;;;;;5103082;28;20249;-66
2022/04/07 04:29:18;;;;;;;0.43;0.43;;;;;;;;;;5103469;28;20200;-66
2022/04/07 04:31:44;;;;;;;0.30;0.30;;;;;;;;;;5103315;28;20203;-67
2022/04/07 04:34:12;;;;;;;2.13;0.50;;;;;;;;;;5103077;28;20212;-67
2022/04/07 04:36:38;;;;;;;0.60;0.60;;;;;;;;;;5103192;28;20210;-67
2022/04/07 04:39:04;;;;;;;0.45;0.45;;;;;;;;;;5103222;28;20249;-67
2022/04/07 04:41:30;;;;;;;0.40;0.40;;;;;;;;;;5103096;28;20200;-67
2022/04/07 04:43:57;;;;;;;0.80;0.80;;;;;;;;;;5103159;28;20196;-67
2022/04/07 04:46:23;;;;;;;0.40;0.40;;;;;;;;;;5102832;28;20287;-67
2022/04/07 04:48:49;;;;;;;3.47;0.65;;;;;;;;;;5102937;28;20549;-67
2022/04/07 04:51:17;;;;;;;0.50;0.50;;;;;;;;;;5103093;28;20259;-67
2022/04/07 04:53:43;;;;;;;0.45;0.45;;;;;;;;;;5103017;28;20257;-67
2022/04/07 04:56:09;;;;;;;0.50;0.50;;;;;;;;;;5102586;28;20417;-67
2022/04/07 04:58:35;;;;;;;0.50;0.50;;;;;;;;;;5102912;28;20514;-67
2022/04/07 05:01:02;;;;;;;0.85;0.85;;;;;;;;;;5102625;28;20256;-67
2022/04/07 05:03:28;;;;;;;1.13;1.10;;;;;;;;;;5102731;28;20214;-67
2022/04/07 05:05:54;;;;;;;1.63;1.52;;;;;;;;;;5102547;28;20219;-67
2022/04/07 05:08:22;;;;;;;0.60;0.60;;;;;;;;;;5102426;28;20195;-58
2022/04/07 05:10:48;;;;;;;0.57;0.57;;;;;;;;;;5102707;28;20237;-56
2022/04/07 05:13:14;;;;;;;1.65;0.60;;;;;;;;;;5085045;28;20213;-58
2022/04/07 05:15:40;;;;;;;2.92;2.55;;;;;;;;;;5086634;28;20217;-58
2022/04/07 05:18:07;;;;;;;1.10;1.10;;;;;;;;;;5093015;28;20207;-58
2022/04/07 05:20:33;;;;;;;0.45;0.40;;;;;;;;;;5079747;28;20230;-57
2022/04/07 05:22:59;;;;;;;0.50;0.50;;;;;;;;;;5092974;28;20215;-58
2022/04/07 05:25:27;;;;;;;3.58;3.28;;;;;;;;;;5095360;28;20204;-59
2022/04/07 05:27:53;;;;;;;0.52;0.52;;;;;;;;;;5094150;28;20214;-58
2022/04/07 05:30:19;;;;;;;0.60;0.60;;;;;;;;;;5088425;28;20196;-58
2022/04/07 05:32:46;;;;;;;0.47;0.47;;;;;;;;;;5084896;28;20470;-59
2022/04/07 05:35:13;;;;;;;0.40;0.40;;;;;;;;;;5087833;28;20442;-59
2022/04/07 05:37:39;;;;;;;1.65;0.40;;;;;;;;;;5096919;28;20441;-61
2022/04/07 05:40:06;;;;;;;0.40;0.40;;;;;;;;;;5095825;28;20558;-59
2022/04/07 05:42:33;;;;;;;0.52;0.50;;;;;;;;;;5095517;28;20207;-59
2022/04/07 05:45:00;;;;;;;0.95;0.60;;;;;;;;;;5095379;28;20214;-57
2022/04/07 05:47:26;;;;;;;1.13;0.47;;;;;;;;;;5096011;28;20212;-57
2022/04/07 05:49:53;;;;;;;0.60;0.60;;;;;;;;;;5095935;28;20211;-58
2022/04/07 05:52:19;;;;;;;0.45;0.38;;;;;;;;;;5096139;28;20234;-58
2022/04/07 05:54:46;;;;;;;0.40;0.40;;;;;;;;;;5096097;28;21150;-57
2022/04/07 05:57:12;;;;;;;1.67;0.50;;;;;;;;;;5096116;28;20216;-58
2022/04/07 05:59:39;;;;;;;0.82;0.55;;;;;;;;;;5096045;28;20737;-58
2022/04/07 06:02:06;;;;;;;0.82;0.40;;;;;;;;;;5096272;28;20534;-57
2022/04/07 06:04:32;;;;;;;0.90;0.50;;;;;;;;;;5092772;28;20320;-57
2022/04/07 06:06:58;;;;;;;0.50;0.50;;;;;;;;;;5095535;28;20282;-57
2022/04/07 06:09:25;;;;;;;0.60;0.60;;;;;;;;;;5095385;28;20216;-56
2022/04/07 06:11:51;;;;;;;1.42;0.60;;;;;;;;;;5096047;28;20261;-56
2022/04/07 06:14:17;;;;;;;0.82;0.57;;;;;;;;;;5095241;28;20247;-57
2022/04/07 06:16:45;;;;;;;0.82;0.60;;;;;;;;;;5096429;28;20387;-56
2022/04/07 06:19:11;;;;;;;0.55;0.35;;;;;;;;;;5096290;28;20459;-57
2022/04/07 06:21:37;;;;;;;1.85;0.50;;;;;;;;;;5096270;28;20793;-56
2022/04/07 06:24:04;;;;;;;2.05;0.60;;;;;;;;;;5095769;28;20410;-56
2022/04/07 06:26:30;;;;;;;1.75;0.40;;;;;;;;;;5095886;28;20208;-58
2022/04/07 06:28:56;;;;;;;1.02;0.40;;;;;;;;;;5096027;28;20520;-57
2022/04/07 06:31:22;;;;;;;0.40;0.40;;;;;;;;;;5096162;28;20207;-57
2022/04/07 06:33:50;;;;;;;0.52;0.50;;;;;;;;;;5095649;28;20207;-57
2022/04/07 06:36:16;;;;;;;0.80;0.80;;;;;;;;;;5095803;28;20269;-56
2022/04/07 06:38:42;;;;;;;0.50;0.50;;;;;;;;;;5098296;28;20248;-57
2022/04/07 06:41:09;;;;;;;0.40;0.40;;;;;;;;;;5099795;28;20224;-58
2022/04/07 06:43:35;;;;;;;0.45;0.45;;;;;;;;;;5099085;28;20203;-58
2022/04/07 06:46:01;;;;;;;2.17;0.60;;;;;;;;;;5099241;28;20215;-56
2022/04/07 06:48:27;;;;;;;0.32;0.32;;;;;;;;;;5099615;28;20302;-57
2022/04/07 06:50:55;;;;;;;1.00;0.30;;;;;;;;;;5099430;28;20396;-57
2022/04/07 06:53:21;;;;;;;0.38;0.38;;;;;;;;;;5099241;28;20430;-58
2022/04/07 06:55:47;;;;;;;0.30;0.30;;;;;;;;;;5099187;28;20411;-56
2022/04/07 06:58:14;;;;;;;0.85;0.30;;;;;;;;;;5099108;28;20409;-56
2022/04/07 07:00:44;;;;;;;0.22;0.22;;;;;;;;;;5099302;28;20223;-58
2022/04/07 07:03:11;;;;;;;1.38;0.60;;;;;;;;;;5098780;28;20246;-58
2022/04/07 07:05:38;;;;;;;4.22;0.50;;;;;;;;;;5097101;28;20236;-57
2022/04/07 07:08:12;;;;;;;0.30;0.30;;;;;;;;;;5099427;28;20580;-57
2022/04/07 07:10:38;;;;;;;0.63;0.28;;;;;;;;;;5098844;28;20203;-58
2022/04/07 07:13:05;;;;;;;0.22;0.22;;;;;;;;;;5098950;28;20216;-56
2022/04/07 07:15:31;;;;;;;0.40;0.40;;;;;;;;;;5088123;28;20215;-58
2022/04/07 07:17:57;;;;;;;4.18;0.50;;;;;;;;;;5098717;28;20237;-58
2022/04/07 07:20:24;;;;;;;0.40;0.40;;;;;;;;;;5098690;28;20642;-58
2022/04/07 07:22:50;;;;;;;1.10;1.00;;;;;;;;;;5098156;28;20222;-58
2022/04/07 07:25:17;;;;;;;0.63;0.63;;;;;;;;;;5098195;28;20200;-58
2022/04/07 07:27:48;;;;;;;2.40;0.40;;;;;;;;;;5098831;28;20216;-57
2022/04/07 07:30:15;;;;;;;3.05;0.80;;;;;;;;;;5099335;28;20211;-57
2022/04/07 07:32:42;;;;;;;0.60;0.60;;;;;;;;;;5097624;28;20595;-58
2022/04/07 07:35:09;;;;;;;1.23;0.60;;;;;;;;;;5097513;28;20214;-58
2022/04/07 07:37:36;;;;;;;1.95;0.50;;;;;;;;;;5097432;28;20207;-59
2022/04/07 07:40:06;;;;;;;1.13;0.70;;;;;;;;;;5091642;28;20409;-58
2022/04/07 07:42:34;;;;;;;0.30;0.30;;;;;;;;;;5085918;28;20212;-58
2022/04/07 07:45:00;;;;;;;1.98;0.70;;;;;;;;;;5092615;28;20231;-59
2022/04/07 07:47:26;;;;;;;0.47;0.43;;;;;;;;;;5096390;28;20212;-59
2022/04/07 07:49:52;;;;;;;1.65;0.68;;;;;;;;;;5077325;28;20290;-59
2022/04/07 07:52:19;;;;;;;1.60;0.52;;;;;;;;;;5078298;28;20254;-60
2022/04/07 07:54:45;;;;;;;0.30;0.30;;;;;;;;;;5077060;28;20215;-59
2022/04/07 07:57:11;;;;;;;1.02;0.70;;;;;;;;;;5077467;28;20691;-61
2022/04/07 07:59:39;;;;;;;1.23;0.50;;;;;;;;;;5091071;28;20483;-61
2022/04/07 08:02:05;;;;;;;1.30;0.40;;;;;;;;;;5097728;28;20228;-60
2022/04/07 08:04:31;;;;;;;2.25;1.70;;;;;;;;;;5096916;28;20443;-59
2022/04/07 08:06:58;;;;;;;0.60;0.30;;;;;;;;;;5097484;28;20231;-60
2022/04/07 08:09:24;;;;;;;0.60;0.50;;;;;;;;;;5097014;28;20215;-59
2022/04/07 08:11:50;;;;;;;1.33;0.85;;;;;;;;;;5097877;28;20261;-59
2022/04/07 08:14:17;;;;;;;2.00;0.55;;;;;;;;;;5097508;28;20249;-59
2022/04/07 08:16:44;;;;;;;1.45;1.23;;;;;;;;;;5097393;28;20226;-59
2022/04/07 08:19:11;;;;;;;0.95;0.50;;;;;;;;;;5097493;28;20546;-59
2022/04/07 08:21:37;;;;;;;0.43;0.40;;;;;;;;;;5094108;28;20211;-60
2022/04/07 08:24:04;;;;;;;0.63;0.60;;;;;;;;;;5095066;28;20235;-60
2022/04/07 08:26:30;;;;;;;0.98;0.80;;;;;;;;;;5097408;28;20215;-61
2022/04/07 08:28:56;;;;;;;1.25;0.40;;;;;;;;;;5097776;28;20260;-61
2022/04/07 08:31:23;;;;;;;4.35;0.80;;;;;;;;;;5097709;28;20204;-59
2022/04/07 08:33:51;;;;;;;0.50;0.50;;;;;;;;;;5097276;28;20570;-60
2022/04/07 08:36:17;;;;;;;0.85;0.47;;;;;;;;;;5097598;28;20445;-60
2022/04/07 08:38:44;;;;;;;0.40;0.40;;;;;;;;;;5097903;28;20383;-60
2022/04/07 08:41:11;;;;;;;3.05;0.60;;;;;;;;;;5097212;28;20470;-60
2022/04/07 08:43:39;;;;;;;2.13;0.60;;;;;;;;;;5097133;28;20207;-60
2022/04/07 08:46:07;;;;;;;0.40;0.40;;;;;;;;;;5096956;28;20215;-60
2022/04/07 08:48:35;;;;;;;1.95;0.47;;;;;;;;;;5097002;28;20264;-60
2022/04/07 08:51:03;;;;;;;1.55;0.50;;;;;;;;;;5097269;28;20565;-60
2022/04/07 08:53:30;;;;;;;1.75;0.40;;;;;;;;;;5096868;28;20207;-62
2022/04/07 08:55:58;;;;;;;0.43;0.30;;;;;;;;;;5096840;28;20250;-62
2022/04/07 08:58:24;;;;;;;0.40;0.40;;;;;;;;;;5096953;28;20276;-62
2022/04/07 09:00:50;;;;;;;0.30;0.30;;;;;;;;;;5095992;28;20593;-60
2022/04/07 09:03:16;;;;;;;0.60;0.60;;;;;;;;;;5096681;28;20235;-60
2022/04/07 09:05:52;;;;;;;0.43;0.40;;;;;;;;;;5096822;28;20383;-60
2022/04/07 09:08:19;;;;;;;1.65;0.30;;;;;;;;;;5096631;28;20252;-61
2022/04/07 09:10:53;;;;;;;0.30;0.30;;;;;;;;;;5096775;28;20278;-60
2022/04/07 09:13:19;;;;;;;0.30;0.30;;;;;;;;;;5091724;28;20215;-59
2022/04/07 09:15:45;;;;;;;2.10;0.40;;;;;;;;;;5096728;28;20511;-63
2022/04/07 09:18:12;;;;;;;0.35;0.25;;;;;;;;;;5096690;28;20252;-60
2022/04/07 09:20:42;;;;;;;2.90;0.38;;;;;;;;;;5097278;28;20227;-61
2022/04/07 09:23:11;;;;;;;0.35;0.30;;;;;;;;;;5096928;28;20207;-60
2022/04/07 09:25:41;;;;;;;2.00;0.73;;;;;;;;;;5096548;28;20558;-59
2022/04/07 09:28:11;;;;;;;1.70;0.20;;;;;;;;;;5096119;28;20515;-60
2022/04/07 09:30:38;;;;;;;1.85;0.30;;;;;;;;;;5095882;28;20507;-58
2022/04/07 09:33:04;;;;;;;0.65;0.47;;;;;;;;;;5090443;28;20408;-58
2022/04/07 09:35:30;;;;;;;0.30;0.30;;;;;;;;;;5095711;28;20215;-59
2022/04/07 09:38:01;;;;;;;0.98;0.70;;;;;;;;;;5095738;28;20208;-59
2022/04/07 09:40:28;;;;;;;0.20;0.20;;;;;;;;;;5095703;28;20424;-58
2022/04/07 09:42:58;;;;;;;0.70;0.70;;;;;;;;;;5095744;28;20239;-58
2022/04/07 09:45:25;;;;;;;1.17;0.20;;;;;;;;;;5095677;28;20215;-58
2022/04/07 09:47:51;;;;;;;3.35;0.30;;;;;;;;;;5095714;28;20207;-60
2022/04/07 09:50:22;;;;;;;0.35;0.35;;;;;;;;;;5095800;28;20212;-60
2022/04/07 09:52:55;;;;;;;2.00;0.35;;;;;;;;;;5095643;28;20203;-60
2022/04/07 09:55:21;;;;;;;2.35;0.43;;;;;;;;;;5095293;28;20303;-61
2022/04/07 09:57:48;;;;;;;1.02;0.40;;;;;;;;;;5095694;28;20208;-59
2022/04/07 10:00:16;;;;;;;0.82;0.38;;;;;;;;;;5095879;28;20252;-59
2022/04/07 10:02:43;;;;;;;0.25;0.25;;;;;;;;;;5095647;28;20245;-58
2022/04/07 10:05:09;;;;;;;0.40;0.40;;;;;;;;;;5095453;28;20231;-57
2022/04/07 10:07:35;;;;;;;0.55;0.30;;;;;;;;;;5095476;28;20212;-58
2022/04/07 10:10:02;;;;;;;0.30;0.30;;;;;;;;;;5095776;28;20253;-58
2022/04/07 10:12:28;;;;;;;1.33;0.38;;;;;;;;;;5098031;28;20269;-58
2022/04/07 10:14:55;;;;;;;0.57;0.20;;;;;;;;;;5099624;28;20207;-58
2022/04/07 10:17:23;;;;;;;4.47;0.25;;;;;;;;;;5099683;28;20211;-59
2022/04/07 10:19:52;;;;;;;1.20;0.50;;;;;;;;;;5099544;28;20490;-59
2022/04/07 10:22:31;;;;;;;1.45;0.30;;;;;;;;;;5099280;28;20308;-58
2022/04/07 10:25:02;;;;;;;0.30;0.30;;;;;;;;;;5099085;28;20249;-57
2022/04/07 10:27:30;;;;;;;0.75;0.30;;;;;;;;;;5099177;28;20208;-58
2022/04/07 10:30:03;;;;;;;1.63;0.30;;;;;;;;;;5099163;28;20215;-57
2022/04/07 10:32:36;;;;;;;0.82;0.40;;;;;;;;;;5098835;28;20204;-57
2022/04/07 10:35:03;;;;;;;0.22;0.22;;;;;;;;;;5098073;28;20219;-57
2022/04/07 10:37:30;;;;;;;0.30;0.30;;;;;;;;;;5099024;28;20580;-56
2022/04/07 10:39:56;;;;;;;2.40;0.28;;;;;;;;;;5098972;28;20222;-56
2022/04/07 10:42:56;;;;;;;0.47;0.40;;;;;;;;;;5099220;28;20227;-57
2022/04/07 10:45:30;;;;;;;0.95;0.45;;;;;;;;;;5097919;28;20435;-58
2022/04/07 10:48:12;;;;;;;0.43;0.30;;;;;;;;;;5099202;28;20211;-57
2022/04/07 10:50:44;;;;;;;0.20;0.20;;;;;;;;;;5099159;28;20208;-58
2022/04/07 10:53:20;;;;;;;0.22;0.20;;;;;;;;;;5099128;28;20223;-56
2022/04/07 10:55:53;;;;;;;2.17;0.35;;;;;;;;;;5098360;28;20215;-57
2022/04/07 10:58:21;;;;;;;0.43;0.43;;;;;;;;;;5098833;28;20211;-57
2022/04/07 11:00:48;;;;;;;0.30;0.30;;;;;;;;;;5098663;28;20442;-59
2022/04/07 11:03:14;;;;;;;0.15;0.15;;;;;;;;;;5092453;28;20208;-58
2022/04/07 11:05:53;;;;;;;0.22;0.20;;;;;;;;;;5081579;28;20227;-59
2022/04/07 11:08:21;;;;;;;0.30;0.30;;;;;;;;;;5097838;28;20523;-60
2022/04/07 11:10:48;;;;;;;0.10;0.10;;;;;;;;;;5098335;28;20520;-60
2022/04/07 11:13:15;;;;;;;0.20;0.20;;;;;;;;;;5098353;28;20208;-58
2022/04/07 11:15:47;;;;;;;0.68;0.60;;;;;;;;;;5098426;28;20216;-59
2022/04/07 11:18:32;;;;;;;1.63;0.20;;;;;;;;;;5097031;28;20211;-59
2022/04/07 11:21:05;;;;;;;4.50;0.20;;;;;;;;;;5098575;28;20207;-60
2022/04/07 11:23:39;;;;;;;0.10;0.10;;;;;;;;;;5097360;28;20208;-59
2022/04/07 11:26:09;;;;;;;0.70;0.40;;;;;;;;;;5098789;28;20212;-59
2022/04/07 11:28:37;;;;;;;0.63;0.30;;;;;;;;;;5097370;28;20249;-59
2022/04/07 11:31:04;;;;;;;0.20;0.20;;;;;;;;;;5097516;28;20210;-59
2022/04/07 11:33:31;;;;;;;0.50;0.20;;;;;;;;;;5098276;28;20226;-60
2022/04/07 11:36:16;;;;;;;1.45;0.20;;;;;;;;;;5098434;28;20219;-61
2022/04/07 11:38:47;;;;;;;0.98;0.20;;;;;;;;;;5097817;28;20219;-60
2022/04/07 11:41:14;;;;;;;1.70;0.20;;;;;;;;;;5098358;28;20264;-60
2022/04/07 11:43:41;;;;;;;1.45;0.30;;;;;;;;;;5098378;28;20273;-62
2022/04/07 11:46:07;;;;;;;3.15;0.30;;;;;;;;;;5098348;28;20249;-60
2022/04/07 11:48:34;;;;;;;3.45;0.30;;;;;;;;;;5097807;28;20245;-61
2022/04/07 11:51:01;;;;;;;0.38;0.20;;;;;;;;;;5098296;28;20519;-60
2022/04/07 11:53:27;;;;;;;2.17;0.30;;;;;;;;;;5097962;28;20211;-59
2022/04/07 11:55:59;;;;;;;1.40;0.50;;;;;;;;;;5097659;28;20480;-61
2022/04/07 11:58:29;;;;;;;0.20;0.10;;;;;;;;;;5097359;28;20381;-60
2022/04/07 12:00:55;;;;;;;0.85;0.20;;;;;;;;;;5092440;28;20409;-59
2022/04/07 12:03:21;;;;;;;0.10;0.10;;;;;;;;;;5090697;28;20569;-58
2022/04/07 12:05:47;;;;;;;0.20;0.20;;;;;;;;;;5097216;28;20554;-60
2022/04/07 12:08:14;;;;;;;0.00;0.00;;;;;;;;;;5097706;28;20220;-60
2022/04/07 12:10:41;;;;;;;0.15;0.15;;;;;;;;;;5097201;28;20321;-59
2022/04/07 12:13:09;;;;;;;2.30;0.20;;;;;;;;;;5097480;28;20208;-60
2022/04/07 12:15:36;;;;;;;2.28;0.15;;;;;;;;;;5097146;28;20207;-59
2022/04/07 12:18:02;;;;;;;0.32;0.10;;;;;;;;;;5097823;28;20212;-60
2022/04/07 12:20:29;;;;;;;2.33;0.40;;;;;;;;;;5097212;28;20223;-60
2022/04/07 12:23:05;;;;;;;1.25;0.52;;;;;;;;;;5097283;28;20427;-60
2022/04/07 12:25:31;;;;;;;0.50;0.10;;;;;;;;;;5097944;28;20261;-60
2022/04/07 12:28:06;;;;;;;1.27;0.68;;;;;;;;;;5097792;28;20208;-62
2022/04/07 12:30:43;;;;;;;1.13;0.20;;;;;;;;;;5096718;28;20211;-61
2022/04/07 12:33:09;;;;;;;0.38;0.30;;;;;;;;;;5097240;28;20206;-58
2022/04/07 12:35:45;;;;;;;1.65;0.30;;;;;;;;;;5096792;28;20212;-59
2022/04/07 12:38:12;;;;;;;0.10;0.10;;;;;;;;;;5096643;28;20215;-58
2022/04/07 12:40:39;;;;;;;1.17;0.10;;;;;;;;;;5096101;28;20584;-59
2022/04/07 12:43:06;;;;;;;1.45;0.20;;;;;;;;;;5096630;28;20284;-59
2022/04/07 12:45:33;;;;;;;0.30;0.30;;;;;;;;;;5096753;28;20246;-60
2022/04/07 12:48:10;;;;;;;0.20;0.20;;;;;;;;;;5096354;28;20251;-60
2022/04/07 12:50:36;;;;;;;0.10;0.10;;;;;;;;;;5095580;28;20500;-60
2022/04/07 12:53:03;;;;;;;0.10;0.10;;;;;;;;;;5096591;28;20414;-60
2022/04/07 12:55:35;;;;;;;0.15;0.15;;;;;;;;;;5096648;28;20208;-60
2022/04/07 12:58:01;;;;;;;0.47;0.20;;;;;;;;;;5096485;28;20245;-60
2022/04/07 13:00:27;;;;;;;0.90;0.20;;;;;;;;;;5096640;28;20223;-59
2022/04/07 13:02:55;;;;;;;0.57;0.20;;;;;;;;;;5098961;28;20230;-58
2022/04/07 13:05:25;;;;;;;0.52;0.10;;;;;;;;;;5102604;28;20239;-58
2022/04/07 13:07:51;;;;;;;0.20;0.20;;;;;;;;;;5102154;28;20291;-59
2022/04/07 13:10:18;;;;;;;2.35;0.10;;;;;;;;;;5102240;28;20192;-58
2022/04/07 13:12:44;;;;;;;0.17;0.17;;;;;;;;;;5102182;28;20238;-57
2022/04/07 13:15:11;;;;;;;0.10;0.10;;;;;;;;;;5102508;28;20200;-56
2022/04/07 13:17:37;;;;;;;0.20;0.20;;;;;;;;;;5102187;28;20219;-58
2022/04/07 13:20:04;;;;;;;0.30;0.10;;;;;;;;;;5102340;28;20200;-59
2022/04/07 13:22:32;;;;;;;0.20;0.20;;;;;;;;;;5102086;28;20226;-58
2022/04/07 13:24:59;;;;;;;2.47;0.30;;;;;;;;;;5102203;28;20395;-59
2022/04/07 13:27:25;;;;;;;0.40;0.20;;;;;;;;;;5102547;28;20398;-60
2022/04/07 13:29:51;;;;;;;0.20;0.20;;;;;;;;;;5102110;28;20210;-58
2022/04/07 13:32:17;;;;;;;0.40;0.10;;;;;;;;;;5102310;28;20238;-58
2022/04/07 13:34:44;;;;;;;0.85;0.20;;;;;;;;;;5102291;28;20289;-58
2022/04/07 13:37:10;;;;;;;1.60;0.20;;;;;;;;;;5101787;28;20195;-59
2022/04/07 13:39:38;;;;;;;0.30;0.28;;;;;;;;;;5102168;28;20229;-58
2022/04/07 13:42:04;;;;;;;0.20;0.20;;;;;;;;;;5101718;28;20439;-60
2022/04/07 13:44:31;;;;;;;0.47;0.20;;;;;;;;;;5102129;28;20500;-57
2022/04/07 13:46:57;;;;;;;0.20;0.20;;;;;;;;;;5103012;28;20206;-59
2022/04/07 13:49:25;;;;;;;1.88;0.40;;;;;;;;;;5106258;28;20202;-58
2022/04/07 13:51:51;;;;;;;0.35;0.20;;;;;;;;;;5106081;28;20244;-58
2022/04/07 13:54:18;;;;;;;0.20;0.20;;;;;;;;;;5106158;28;20234;-58
2022/04/07 13:56:45;;;;;;;1.30;0.20;;;;;;;;;;5105738;28;20283;-60
2022/04/07 13:59:11;;;;;;;0.10;0.10;;;;;;;;;;5106175;28;20192;-59
2022/04/07 14:01:38;;;;;;;6.55;0.43;;;;;;;;;;5106117;28;20418;-58
2022/04/07 14:04:05;;;;;;;2.08;0.20;;;;;;;;;;5106133;28;20531;-59
2022/04/07 14:06:31;;;;;;;2.25;0.28;;;;;;;;;;5105872;28;20228;-60
2022/04/07 14:08:57;;;;;;;2.08;0.20;;;;;;;;;;5106082;28;20234;-57
2022/04/07 14:11:23;;;;;;;0.35;0.35;;;;;;;;;;5105724;28;20196;-60
2022/04/07 14:13:52;;;;;;;1.13;0.10;;;;;;;;;;5105762;28;20518;-57
2022/04/07 14:16:19;;;;;;;0.30;0.30;;;;;;;;;;5105175;28;20451;-58
2022/04/07 14:18:46;;;;;;;0.20;0.15;;;;;;;;;;5105305;28;20203;-58
2022/04/07 14:21:13;;;;;;;1.80;0.50;;;;;;;;;;5105117;28;20234;-57
2022/04/07 14:23:39;;;;;;;2.55;0.30;;;;;;;;;;5105402;28;20282;-57
2022/04/07 14:26:06;;;;;;;0.73;0.55;;;;;;;;;;5105229;28;20208;-58
2022/04/07 14:28:32;;;;;;;0.20;0.20;;;;;;;;;;5104937;28;20204;-57
2022/04/07 14:31:00;;;;;;;0.20;0.20;;;;;;;;;;5105002;28;20195;-58
2022/04/07 14:33:26;;;;;;;1.35;0.20;;;;;;;;;;5105037;28;20192;-58
2022/04/07 14:35:52;;;;;;;3.45;0.30;;;;;;;;;;5104963;28;20211;-60
2022/04/07 14:38:19;;;;;;;0.35;0.30;;;;;;;;;;5104579;28;20196;-58
2022/04/07 14:40:45;;;;;;;1.17;0.20;;;;;;;;;;5105087;28;20200;-59
2022/04/07 14:43:12;;;;;;;0.30;0.30;;;;;;;;;;5104831;28;20269;-58
2022/04/07 14:45:38;;;;;;;1.08;0.22;;;;;;;;;;5104874;28;20195;-58